Time;durP1;ratioP1;P1;durP2;ratioP2;P2;SDS_P1;SDS_P2;PMS_P1;PMS_P2;Temp;Humidity;BMP_temperature;BMP_pressure;BME280_temperature;BME280_humidity;BME280_pressure;Samples;Min_cycle;Max_cycle;Signal;HPM_P1;HPM_P2
2023/01/13 00:02:13;;;;;;;4.57;2.13;;;10.00;99.90;;;10.64;73.02;97613.06;5220217;28;20225;-62
2023/01/13 00:04:47;;;;;;;2.20;1.80;;;10.00;99.90;;;10.68;73.18;97616.69;5219054;28;20287;-61
2023/01/13 00:07:20;;;;;;;2.40;2.20;;;10.00;99.90;;;10.81;72.03;97612.25;5217960;28;20568;-62
2023/01/13 00:09:55;;;;;;;2.35;2.05;;;10.00;99.90;;;10.77;71.66;97605.25;5218981;28;20201;-63
2023/01/13 00:12:28;;;;;;;3.00;2.70;;;10.00;99.90;;;10.84;71.65;97606.44;5217629;28;20225;-62
2023/01/13 00:15:01;;;;;;;2.80;2.60;;;10.20;99.90;;;10.70;72.71;97613.41;5217052;28;20670;-61
2023/01/13 00:17:34;;;;;;;3.13;2.42;;;10.00;99.90;;;10.55;74.15;97599.81;5220934;28;20217;-61
2023/01/13 00:20:10;;;;;;;2.70;2.10;;;9.90;99.90;;;10.78;71.53;97586.53;5220141;28;20533;-62
2023/01/13 00:22:43;;;;;;;1.80;1.70;;;10.10;99.90;;;10.90;71.61;97585.41;5223846;28;20240;-63
2023/01/13 00:25:18;;;;;;;3.45;2.03;;;10.20;99.90;;;10.80;71.31;97589.19;5223027;28;20215;-61
2023/01/13 00:27:51;;;;;;;2.55;1.75;;;10.20;99.90;;;10.75;71.57;97576.16;5224283;28;20193;-62
2023/01/13 00:30:24;;;;;;;2.08;1.98;;;10.20;99.90;;;10.77;71.40;97584.81;5224057;28;20198;-61
2023/01/13 00:32:58;;;;;;;1.80;1.60;;;10.30;99.90;;;10.86;71.77;97580.97;5224586;28;20229;-62
2023/01/13 00:35:31;;;;;;;2.28;1.77;;;10.30;99.90;;;10.85;71.93;97574.09;5224085;28;20203;-61
2023/01/13 00:38:04;;;;;;;2.47;1.80;;;10.20;99.90;;;10.83;71.78;97574.88;5224149;28;20248;-62
2023/01/13 00:40:39;;;;;;;2.42;1.98;;;10.30;99.90;;;10.82;71.63;97573.13;5221188;28;20197;-62
2023/01/13 00:43:23;;;;;;;1.88;1.77;;;10.30;99.90;;;10.88;72.53;97576.81;5225301;28;20216;-61
2023/01/13 00:45:56;;;;;;;2.13;1.80;;;10.30;99.90;;;10.79;71.57;97567.88;5222112;28;20207;-62
2023/01/13 00:48:31;;;;;;;2.53;1.60;;;10.20;99.90;;;10.89;71.60;97563.22;5224157;28;20197;-62
2023/01/13 00:51:08;;;;;;;2.00;1.77;;;10.30;99.90;;;10.98;71.86;97564.56;5221786;28;20292;-61
2023/01/13 00:53:44;;;;;;;3.88;1.92;;;10.40;99.90;;;10.91;72.17;97570.16;5225071;28;20354;-61
2023/01/13 00:56:21;;;;;;;2.10;1.90;;;10.20;99.90;;;10.99;71.28;97555.22;5222578;28;20657;-62
2023/01/13 00:59:13;;;;;;;1.65;1.55;;;10.40;99.90;;;10.93;72.06;97549.78;5224378;28;20194;-63
2023/01/13 01:01:46;;;;;;;3.05;1.70;;;10.30;99.90;;;10.88;72.66;97552.13;5217876;28;20213;-62
2023/01/13 01:04:19;;;;;;;3.38;1.88;;;10.30;99.90;;;10.92;71.99;97545.47;5222842;28;20221;-63
2023/01/13 01:06:53;;;;;;;1.60;1.50;;;10.30;99.90;;;10.92;71.63;97545.47;5220739;28;20586;-60
2023/01/13 01:09:31;;;;;;;1.67;1.58;;;10.30;99.90;;;10.88;71.73;97544.44;5222705;28;20220;-63
2023/01/13 01:12:06;;;;;;;1.75;1.65;;;10.30;99.90;;;10.99;72.13;97543.31;5224553;28;20197;-63
2023/01/13 01:14:39;;;;;;;2.00;1.90;;;10.30;99.90;;;11.04;71.93;97538.41;5223989;28;20211;-62
2023/01/13 01:17:13;;;;;;;1.50;1.40;;;10.50;99.90;;;11.02;71.51;97540.03;5224897;28;20224;-63
2023/01/13 01:19:46;;;;;;;1.70;1.60;;;10.50;99.90;;;11.01;70.86;97533.16;5221501;28;20572;-61
2023/01/13 01:22:19;;;;;;;1.60;1.50;;;10.50;99.90;;;10.89;72.21;97527.44;5224576;28;20711;-62
2023/01/13 01:24:52;;;;;;;2.10;1.60;;;10.30;99.90;;;10.87;71.64;97529.00;5221732;28;20201;-62
2023/01/13 01:27:27;;;;;;;2.10;1.90;;;10.40;99.90;;;10.90;72.69;97535.19;5224220;28;20196;-62
2023/01/13 01:30:00;;;;;;;1.90;1.60;;;10.30;99.90;;;10.98;71.73;97527.88;5224892;28;20201;-62
2023/01/13 01:32:34;;;;;;;1.90;1.80;;;10.30;99.90;;;10.91;72.61;97523.28;5218514;28;20313;-63
2023/01/13 01:35:08;;;;;;;1.70;1.60;;;10.30;99.90;;;11.05;71.33;97522.28;5222205;28;20201;-63
2023/01/13 01:37:41;;;;;;;2.35;2.15;;;10.40;99.90;;;10.94;73.53;97528.53;5221301;28;20244;-63
2023/01/13 01:40:14;;;;;;;1.70;1.60;;;10.30;99.90;;;10.93;73.28;97525.13;5221233;28;20194;-63
2023/01/13 01:45:39;;;;;;;3.13;1.85;;;10.40;99.90;;;10.91;72.32;97507.94;5194272;28;20595;-61
2023/01/13 01:48:12;;;;;;;1.70;1.60;;;10.30;99.90;;;10.98;71.88;97512.53;5227100;28;20204;-58
2023/01/13 01:50:46;;;;;;;1.50;1.38;;;10.40;99.90;;;10.97;72.19;97510.78;5222629;28;20494;-60
2023/01/13 01:53:21;;;;;;;1.58;1.45;;;10.40;99.90;;;10.96;71.42;97504.81;5230210;28;20944;-59
2023/01/13 01:55:56;;;;;;;2.28;1.70;;;10.40;99.90;;;11.01;72.32;97507.56;5219901;28;20189;-61
2023/01/13 01:58:36;;;;;;;2.55;1.58;;;10.60;99.90;;;11.03;72.63;97503.41;5215924;28;20217;-62
2023/01/13 02:01:10;;;;;;;2.17;1.92;;;10.60;99.90;;;11.06;71.83;97501.00;5219169;28;20196;-63
2023/01/13 02:03:47;;;;;;;2.38;2.08;;;10.60;99.90;;;11.11;71.98;97504.69;5223626;28;20312;-62
2023/01/13 02:06:20;;;;;;;2.03;1.58;;;10.50;99.90;;;11.07;71.23;97500.19;5221630;28;20224;-62
2023/01/13 02:08:54;;;;;;;2.42;1.70;;;10.50;99.90;;;11.05;71.00;97504.38;5220450;28;20212;-62
2023/01/13 02:14:27;;;;;;;1.88;1.70;;;10.60;99.90;;;11.00;72.83;97493.03;5220669;28;20223;-62
2023/01/13 02:17:18;;;;;;;2.65;1.80;;;10.50;99.90;;;11.04;72.85;97507.72;5222841;28;20204;-62
2023/01/13 02:20:59;;;;;;;1.88;1.58;;;10.60;99.90;;;10.97;73.57;97504.00;5220163;28;20194;-61
2023/01/13 02:27:37;;;;;;;1.73;1.60;;;10.50;99.90;;;11.06;72.97;97490.78;5221840;28;20228;-63
2023/01/13 02:33:34;;;;;;;2.13;1.77;;;10.50;99.90;;;11.22;72.90;97489.84;5217691;28;20221;-62
2023/01/13 02:36:22;;;;;;;2.10;1.70;;;10.50;99.90;;;11.05;74.08;97484.78;5220904;28;20268;-61
2023/01/13 02:39:01;;;;;;;3.03;1.75;;;10.40;99.90;;;11.04;73.32;97482.16;5220419;28;20581;-62
2023/01/13 02:44:42;;;;;;;1.92;1.70;;;10.40;99.90;;;10.95;74.27;97471.47;5221112;28;20213;-62
2023/01/13 02:47:21;;;;;;;1.73;1.60;;;10.30;99.90;;;11.10;73.74;97464.53;5214368;28;20205;-63
2023/01/13 02:49:59;;;;;;;1.70;1.30;;;10.40;99.90;;;11.10;72.80;97466.22;5215561;28;20199;-62
2023/01/13 02:52:36;;;;;;;1.73;1.63;;;10.40;99.90;;;11.03;73.49;97465.06;5221182;28;20600;-62
2023/01/13 02:55:15;;;;;;;1.88;1.70;;;10.30;99.90;;;10.99;73.61;97460.63;5219866;28;20863;-61
2023/01/13 02:57:49;;;;;;;1.52;1.42;;;10.20;99.90;;;11.03;73.78;97454.84;5221036;28;20683;-62
2023/01/13 03:00:23;;;;;;;2.35;1.58;;;10.20;99.90;;;11.06;73.47;97454.97;5221786;28;20200;-62
2023/01/13 03:02:58;;;;;;;2.58;1.50;;;10.30;99.90;;;11.11;74.85;97452.66;5221056;28;20221;-62
2023/01/13 03:05:33;;;;;;;1.27;1.17;;;10.20;99.90;;;11.20;73.56;97441.16;5212446;28;20228;-62
2023/01/13 03:08:20;;;;;;;1.63;1.52;;;10.40;99.90;;;11.12;72.87;97444.16;5218052;28;20285;-62
2023/01/13 03:11:02;;;;;;;1.98;1.80;;;10.40;99.90;;;11.23;71.85;97446.44;5220397;28;20239;-63
2023/01/13 03:14:04;;;;;;;2.60;1.50;;;10.70;99.90;;;11.20;72.75;97446.28;5222738;28;20700;-62
2023/01/13 03:17:00;;;;;;;1.90;1.23;;;10.60;99.90;;;11.20;73.36;97441.16;5217289;28;20282;-61
2023/01/13 03:19:44;;;;;;;3.10;1.63;;;10.40;99.90;;;11.09;73.51;97444.88;5219940;28;20315;-62
2023/01/13 03:22:26;;;;;;;1.58;1.42;;;10.50;99.90;;;11.14;73.86;97448.56;5219260;28;20239;-63
2023/01/13 03:25:08;;;;;;;2.75;1.55;;;10.60;99.90;;;11.18;73.22;97453.00;5222945;28;20252;-62
2023/01/13 03:27:48;;;;;;;1.83;1.75;;;10.60;99.90;;;11.13;73.70;97445.91;5220661;28;20209;-61
2023/01/13 03:30:28;;;;;;;1.50;1.40;;;10.40;99.90;;;11.16;73.10;97452.06;5215700;28;20204;-62
2023/01/13 03:33:06;;;;;;;1.58;1.45;;;10.40;99.90;;;11.09;73.08;97455.13;5221745;28;20586;-61
2023/01/13 03:35:45;;;;;;;2.55;1.70;;;10.40;99.90;;;11.09;73.36;97444.88;5216464;28;20308;-62
2023/01/13 03:38:22;;;;;;;1.40;1.30;;;10.40;99.90;;;11.24;73.22;97440.50;5220188;28;20252;-62
2023/01/13 03:40:58;;;;;;;1.60;1.50;;;10.50;99.90;;;11.12;73.25;97442.47;5220397;28;20291;-63
2023/01/13 03:46:33;;;;;;;2.17;1.58;;;10.60;99.90;;;10.99;74.74;97446.13;5218747;28;20288;-62
2023/01/13 03:49:09;;;;;;;1.75;1.40;;;10.40;99.90;;;11.03;74.35;97431.81;5220908;28;20199;-63
2023/01/13 03:51:52;;;;;;;2.47;1.50;;;10.30;99.90;;;11.04;73.37;97431.00;5226440;28;20661;-62
2023/01/13 03:54:30;;;;;;;2.20;1.90;;;10.30;99.90;;;11.10;73.58;97426.16;5224149;28;20221;-63
2023/01/13 03:57:09;;;;;;;1.55;1.45;;;10.50;99.90;;;11.05;73.34;97425.09;5223427;28;20208;-62
2023/01/13 03:59:48;;;;;;;2.15;1.45;;;10.50;99.90;;;11.07;73.43;97431.16;5225682;28;20225;-63
2023/01/13 04:02:36;;;;;;;1.70;1.60;;;10.70;99.90;;;11.13;73.29;97420.31;5227142;28;20769;-62
2023/01/13 04:05:10;;;;;;;1.90;1.80;;;10.70;99.90;;;11.16;73.66;97420.47;5219043;28;20288;-62
2023/01/13 04:07:56;;;;;;;1.80;1.65;;;10.60;99.90;;;11.12;73.82;97422.00;5225188;28;20653;-63
2023/01/13 04:10:35;;;;;;;1.70;1.60;;;10.80;99.90;;;11.12;73.96;97419.47;5219555;28;20649;-62
2023/01/13 04:13:12;;;;;;;1.58;1.48;;;10.70;99.90;;;11.15;73.74;97419.59;5224808;28;20719;-62
2023/01/13 04:15:47;;;;;;;1.42;1.33;;;10.70;99.90;;;11.04;74.16;97426.78;5225509;28;20631;-62
2023/01/13 04:18:24;;;;;;;1.58;1.48;;;10.60;99.90;;;11.07;73.94;97414.94;5229278;28;20248;-62
2023/01/13 04:21:01;;;;;;;1.65;1.55;;;10.60;99.90;;;11.04;74.40;97405.41;5223929;28;20250;-62
2023/01/13 04:23:35;;;;;;;1.90;1.60;;;10.60;99.90;;;11.13;73.93;97411.00;5219705;28;20590;-62
2023/01/13 04:26:08;;;;;;;1.70;1.60;;;10.70;99.90;;;11.15;74.75;97411.94;5222646;28;20668;-62
2023/01/13 04:28:41;;;;;;;2.13;2.03;;;10.60;99.90;;;11.20;73.74;97407.91;5220899;28;20200;-62
2023/01/13 04:31:14;;;;;;;1.90;1.80;;;10.70;99.90;;;11.17;74.12;97406.91;5224154;28;20575;-62
2023/01/13 04:33:48;;;;;;;1.70;1.60;;;10.70;99.90;;;11.09;74.07;97411.66;5223891;28;20244;-62
2023/01/13 04:36:23;;;;;;;1.45;1.35;;;10.60;99.90;;;11.14;74.19;97411.88;5222925;28;20208;-62
2023/01/13 04:38:58;;;;;;;1.67;1.58;;;10.60;99.90;;;11.12;74.26;97408.34;5225257;28;20216;-63
2023/01/13 04:41:56;;;;;;;1.52;1.52;;;10.60;99.90;;;11.08;74.02;97404.78;5222085;28;20192;-62
2023/01/13 04:44:24;;;;;;;2.17;1.67;;;10.50;99.90;;;11.08;73.87;97401.34;5217770;28;20312;-62
2023/01/13 04:46:58;;;;;;;1.60;1.60;;;10.60;99.90;;;11.15;74.24;97401.69;5222370;28;20211;-63
2023/01/13 04:49:32;;;;;;;1.83;1.73;;;10.60;99.90;;;11.23;74.28;97397.81;5221723;28;20210;-62
2023/01/13 04:52:05;;;;;;;3.33;1.70;;;10.60;99.90;;;11.21;74.15;97404.53;5217455;28;20201;-62
2023/01/13 04:54:40;;;;;;;1.80;1.70;;;10.60;99.90;;;11.17;74.88;97412.00;5224591;28;20197;-62
2023/01/13 04:57:13;;;;;;;1.60;1.50;;;10.50;99.90;;;11.19;74.08;97406.16;5224011;28;20779;-63
2023/01/13 04:59:46;;;;;;;2.35;1.50;;;10.60;99.90;;;11.10;74.34;97415.94;5222193;28;20225;-62
2023/01/13 05:02:19;;;;;;;1.63;1.52;;;10.50;99.90;;;11.11;74.75;97411.72;5221910;28;20613;-62
2023/01/13 05:04:52;;;;;;;2.05;1.75;;;10.50;99.90;;;11.12;74.19;97416.03;5221826;28;20202;-62
2023/01/13 05:07:26;;;;;;;2.28;1.58;;;10.50;99.90;;;10.95;75.47;97417.78;5223214;28;20198;-63
2023/01/13 05:10:00;;;;;;;2.58;1.52;;;10.30;99.90;;;11.03;75.93;97408.78;5222628;28;20280;-63
2023/01/13 05:18:16;;;;;;;2.17;1.40;;;10.20;99.90;;;11.08;74.72;97402.22;5223668;28;20589;-62
2023/01/13 05:20:50;;;;;;;1.65;1.50;;;10.40;99.90;;;11.11;74.48;97407.50;5219813;28;20224;-62
2023/01/13 05:26:15;;;;;;;1.63;1.48;;;10.70;99.90;;;11.13;75.07;97411.00;5222727;28;20577;-62
2023/01/13 05:28:48;;;;;;;1.80;1.70;;;10.50;99.90;;;11.16;74.73;97411.16;5226556;28;20227;-62
2023/01/13 05:31:21;;;;;;;1.73;1.67;;;10.60;99.90;;;11.13;74.89;97395.66;5221184;28;20200;-63
2023/01/13 05:33:54;;;;;;;1.95;1.52;;;10.60;99.90;;;11.10;75.24;97408.28;5219206;28;20260;-62
2023/01/13 05:36:27;;;;;;;1.85;1.75;;;10.50;99.90;;;11.15;75.13;97404.25;5219611;28;20224;-62
2023/01/13 05:39:01;;;;;;;2.08;1.60;;;10.50;99.90;;;11.18;74.22;97408.63;5223408;28;20201;-61
2023/01/13 05:44:26;;;;;;;1.50;1.40;;;10.60;99.90;;;11.22;74.49;97413.13;5219982;28;20316;-62
2023/01/13 05:46:59;;;;;;;1.70;1.60;;;10.60;99.90;;;11.28;73.22;97411.72;5220664;28;20295;-61
2023/01/13 05:49:32;;;;;;;1.42;1.42;;;10.80;99.90;;;11.24;74.46;97404.69;5222556;28;20288;-62
2023/01/13 05:52:05;;;;;;;1.85;1.67;;;10.60;99.90;;;11.21;73.43;97404.53;5221929;28;20216;-61
2023/01/13 05:54:40;;;;;;;1.55;1.42;;;10.60;99.90;;;11.21;74.54;97403.66;5228004;28;20228;-61
2023/01/13 05:57:14;;;;;;;1.60;1.50;;;10.60;99.90;;;11.32;73.08;97401.63;5221254;28;20650;-62
2023/01/13 05:59:47;;;;;;;1.52;1.52;;;10.70;99.90;;;11.32;73.35;97393.94;5212219;28;20283;-62
2023/01/13 06:02:21;;;;;;;1.50;1.40;;;10.80;99.90;;;11.27;74.07;97394.63;5221069;28;20303;-62
2023/01/13 06:04:54;;;;;;;1.70;1.60;;;10.70;99.90;;;11.25;72.93;97396.22;5222261;28;20201;-62
2023/01/13 06:07:27;;;;;;;1.60;1.50;;;10.80;99.90;;;11.30;73.77;97398.97;5221288;28;20646;-61
2023/01/13 06:10:00;;;;;;;1.55;1.40;;;10.80;99.90;;;11.35;72.61;97401.75;5223600;28;20228;-62
2023/01/13 06:12:35;;;;;;;1.55;1.45;;;10.70;99.90;;;11.28;73.01;97396.38;5219847;28;20225;-61
2023/01/13 06:15:10;;;;;;;2.03;1.42;;;10.70;99.90;;;11.31;73.60;97397.31;5221593;28;20500;-61
2023/01/13 06:17:43;;;;;;;1.30;1.30;;;10.60;99.90;;;11.32;73.13;97391.38;5222003;28;20289;-62
2023/01/13 06:20:17;;;;;;;1.73;1.48;;;10.70;99.90;;;11.45;72.74;97398.84;5221504;28;20779;-60
2023/01/13 06:22:52;;;;;;;1.33;1.30;;;10.70;99.90;;;11.46;72.12;97395.47;5216091;28;20819;-62
2023/01/13 06:25:36;;;;;;;1.70;1.60;;;10.80;99.90;;;11.38;72.89;97391.66;5217159;28;20219;-61
2023/01/13 06:28:11;;;;;;;1.75;1.65;;;10.80;99.90;;;11.37;72.80;97395.91;5220967;28;20201;-60
2023/01/13 06:30:49;;;;;;;1.63;1.60;;;10.80;99.90;;;11.30;72.55;97393.00;5221370;28;20291;-61
2023/01/13 06:33:28;;;;;;;1.63;1.52;;;10.70;99.90;;;11.39;72.50;97390.84;5221150;28;20251;-61
2023/01/13 06:36:06;;;;;;;1.50;1.50;;;10.80;99.90;;;11.33;73.07;97403.38;5223335;28;20201;-61
2023/01/13 06:38:43;;;;;;;1.70;1.60;;;10.70;99.90;;;11.20;73.17;97397.69;5225585;28;20669;-62
2023/01/13 06:41:17;;;;;;;1.67;1.33;;;10.60;99.90;;;11.30;73.32;97393.00;5220969;28;20285;-61
2023/01/13 06:43:50;;;;;;;1.60;1.50;;;10.60;99.90;;;11.20;74.24;97407.03;5218334;28;20231;-61
2023/01/13 06:46:23;;;;;;;1.70;1.60;;;10.50;99.90;;;11.24;74.33;97394.44;5224822;28;20201;-61
2023/01/13 06:48:56;;;;;;;1.67;1.58;;;10.50;99.90;;;11.12;74.85;97409.22;5219527;28;20205;-61
2023/01/13 06:51:29;;;;;;;1.60;1.50;;;10.40;99.90;;;11.19;73.93;97411.28;5220945;28;20229;-61
2023/01/13 06:54:03;;;;;;;1.70;1.60;;;10.40;99.90;;;11.15;74.80;97417.03;5220724;28;20217;-61
2023/01/13 06:56:36;;;;;;;1.73;1.63;;;10.40;99.90;;;11.11;75.28;97422.84;5219976;28;20260;-62
2023/01/13 06:59:10;;;;;;;1.63;1.52;;;10.40;99.90;;;11.16;74.75;97418.81;5221363;28;20585;-60
2023/01/13 07:01:43;;;;;;;1.63;1.52;;;10.40;99.90;;;11.07;75.56;97407.25;5225649;28;20315;-60
2023/01/13 07:04:17;;;;;;;1.40;1.40;;;10.30;99.90;;;11.08;76.49;97416.69;5221297;28;20248;-62
2023/01/13 07:06:50;;;;;;;1.42;1.33;;;10.30;99.90;;;11.30;75.30;97404.09;5219800;28;20233;-61
2023/01/13 07:09:23;;;;;;;1.60;1.50;;;10.40;99.90;;;11.23;75.25;97402.06;5221960;28;20201;-60
2023/01/13 07:11:56;;;;;;;1.38;1.30;;;10.40;99.90;;;11.38;74.33;97407.03;5215648;28;20224;-61
2023/01/13 07:17:23;;;;;;;1.40;1.40;;;10.50;99.90;;;11.17;75.25;97401.78;5223030;28;20255;-61
2023/01/13 07:19:57;;;;;;;1.60;1.60;;;10.50;99.90;;;11.25;74.70;97406.44;5218904;28;20228;-61
2023/01/13 07:22:30;;;;;;;1.70;1.60;;;10.50;99.90;;;11.24;74.89;97408.94;5220775;28;20228;-61
2023/01/13 07:25:04;;;;;;;1.42;1.33;;;10.50;99.90;;;11.31;74.76;97399.88;5227485;28;20216;-60
2023/01/13 07:27:37;;;;;;;1.45;1.33;;;10.50;99.90;;;11.24;75.72;97394.44;5220929;28;20633;-61
2023/01/13 07:30:13;;;;;;;1.70;1.60;;;10.50;99.90;;;11.30;75.22;97393.00;5227853;28;20280;-61
2023/01/13 07:32:46;;;;;;;1.55;1.42;;;10.50;99.90;;;11.36;75.33;97393.25;5231131;28;20254;-61
2023/01/13 07:35:22;;;;;;;1.27;1.17;;;10.60;99.90;;;11.35;75.33;97387.28;5224447;28;20205;-61
2023/01/13 07:37:55;;;;;;;1.48;1.38;;;10.80;99.90;;;11.25;75.32;97392.78;5224039;28;20766;-60
2023/01/13 07:40:28;;;;;;;1.40;1.30;;;10.70;99.90;;;11.25;75.35;97386.00;5224456;28;20217;-61
2023/01/13 07:45:58;;;;;;;1.38;1.38;;;10.80;99.90;;;11.33;75.31;97388.00;5226933;28;20205;-61
2023/01/13 07:48:33;;;;;;;1.30;1.20;;;10.80;99.90;;;11.20;75.95;97390.00;5221519;28;20197;-61
2023/01/13 07:51:09;;;;;;;1.50;1.50;;;10.70;99.90;;;11.26;75.74;97386.84;5222386;28;20758;-61
2023/01/13 07:53:42;;;;;;;1.30;1.30;;;10.80;99.90;;;11.30;74.41;97390.44;5228249;28;20217;-61
2023/01/13 07:56:16;;;;;;;1.77;1.63;;;10.90;99.90;;;11.23;75.69;97387.59;5225282;28;20515;-61
2023/01/13 07:58:51;;;;;;;1.67;1.58;;;10.80;99.90;;;11.35;75.93;97401.75;5221671;28;20577;-61
2023/01/13 08:01:27;;;;;;;1.67;1.60;;;10.70;99.90;;;11.37;74.74;97392.47;5234365;28;20216;-61
2023/01/13 08:04:00;;;;;;;1.45;1.35;;;10.80;99.90;;;11.44;74.81;97407.28;5218453;28;20225;-61
2023/01/13 08:06:35;;;;;;;1.40;1.30;;;10.80;99.90;;;11.40;75.35;97400.28;5225728;28;20655;-61
2023/01/13 08:09:08;;;;;;;1.40;1.33;;;10.70;99.90;;;11.26;75.89;97404.78;5227329;28;20295;-58
2023/01/13 08:11:42;;;;;;;1.50;1.40;;;10.70;99.90;;;11.19;76.62;97406.16;5222185;28;20647;-61
2023/01/13 08:14:15;;;;;;;1.48;1.48;;;10.80;99.90;;;11.30;75.82;97404.09;5226311;28;20683;-60
2023/01/13 08:16:49;;;;;;;1.38;1.27;;;10.90;99.90;;;11.21;75.36;97407.09;5227809;28;20287;-61
2023/01/13 08:19:22;;;;;;;1.27;1.27;;;10.80;99.90;;;11.32;75.30;97401.63;5222434;28;20250;-61
2023/01/13 08:21:56;;;;;;;1.42;1.42;;;10.80;99.90;;;11.38;75.18;97400.22;5222851;28;20312;-61
2023/01/13 08:24:29;;;;;;;1.20;1.10;;;10.80;99.90;;;11.33;75.62;97411.94;5223581;28;20672;-60
2023/01/13 08:27:02;;;;;;;1.10;1.10;;;10.90;99.90;;;11.37;74.80;97402.72;5219478;28;20251;-61
2023/01/13 08:29:35;;;;;;;1.23;1.23;;;11.00;99.90;;;11.36;75.46;97393.25;5222849;28;20205;-60
2023/01/13 08:32:10;;;;;;;1.25;1.25;;;11.00;99.90;;;11.36;75.13;97399.28;5229335;28;20288;-61
2023/01/13 08:34:43;;;;;;;1.13;1.13;;;10.90;99.90;;;11.45;76.19;97409.94;5222241;28;20224;-61
2023/01/13 08:37:16;;;;;;;1.20;1.20;;;11.00;99.90;;;11.46;77.15;97403.13;5225702;28;20287;-61
2023/01/13 08:39:49;;;;;;;1.20;1.20;;;11.00;99.90;;;11.48;76.01;97404.09;5220942;28;20288;-61
2023/01/13 08:42:23;;;;;;;1.10;1.10;;;11.00;99.90;;;11.56;75.47;97412.09;5226386;28;20270;-61
2023/01/13 08:44:56;;;;;;;2.47;1.20;;;11.00;99.90;;;11.46;76.19;97405.69;5225294;28;20661;-61
2023/01/13 08:47:31;;;;;;;1.30;1.30;;;11.00;99.90;;;11.57;76.03;97409.63;5222579;28;20229;-61
2023/01/13 08:50:05;;;;;;;1.75;1.65;;;11.00;99.90;;;11.49;76.30;97416.06;5218911;28;20251;-61
2023/01/13 08:52:38;;;;;;;1.15;1.15;;;11.00;99.90;;;11.57;76.99;97419.00;5220582;28;20223;-61
2023/01/13 08:55:12;;;;;;;1.70;1.60;;;10.90;99.90;;;11.70;77.00;97429.88;5223813;28;20303;-61
2023/01/13 08:57:45;;;;;;;1.20;1.20;;;11.00;99.90;;;11.78;76.18;97440.44;5224588;28;20745;-60
2023/01/13 09:00:18;;;;;;;1.40;1.40;;;11.20;99.90;;;11.73;77.32;97444.47;5221889;28;20688;-61
2023/01/13 09:02:53;;;;;;;1.75;1.65;;;11.10;99.90;;;11.65;79.90;97454.38;5221310;28;20275;-60
2023/01/13 09:05:26;;;;;;;1.48;1.38;;;11.10;99.90;;;11.46;82.16;97477.34;5226654;28;20206;-61
2023/01/13 09:07:59;;;;;;;1.58;1.58;;;11.00;99.90;;;11.26;84.88;97458.50;5218301;28;20639;-61
2023/01/13 09:10:32;;;;;;;1.80;1.70;;;10.80;99.90;;;11.16;87.06;97467.41;5227029;28;20228;-61
2023/01/13 09:13:10;;;;;;;1.92;1.83;;;10.60;99.90;;;10.91;90.12;97467.03;5221491;28;20248;-61
2023/01/13 09:15:46;;;;;;;1.20;1.20;;;10.40;99.90;;;10.82;91.04;97468.31;5224164;28;20236;-62
2023/01/13 09:18:20;;;;;;;1.77;1.67;;;10.20;99.90;;;10.88;90.51;97479.66;5224752;28;20288;-61
2023/01/13 09:20:53;;;;;;;1.60;1.50;;;10.30;99.90;;;10.94;89.25;97479.97;5220830;28;20215;-61
2023/01/13 09:23:26;;;;;;;1.73;1.63;;;10.40;99.90;;;10.88;91.90;97485.66;5221376;28;20236;-61
2023/01/13 09:26:00;;;;;;;1.40;1.40;;;10.30;99.90;;;10.94;91.46;97496.16;5223531;28;20206;-60
2023/01/13 09:28:33;;;;;;;1.52;1.42;;;10.30;99.90;;;10.88;91.72;97498.44;5220460;28;20205;-61
2023/01/13 09:31:06;;;;;;;1.80;1.70;;;10.30;99.90;;;11.03;90.39;97511.97;5224401;28;20276;-61
2023/01/13 09:36:31;;;;;;;1.73;1.73;;;10.30;99.90;;;10.94;88.54;97520.88;5220106;28;20657;-61
2023/01/13 09:39:05;;;;;;;1.77;1.67;;;10.40;99.90;;;10.86;89.60;97527.28;5222707;28;20201;-62
2023/01/13 09:44:48;;;;;;;1.40;1.30;;;10.20;99.90;;;10.75;89.83;97554.84;5221191;28;20308;-61
2023/01/13 09:47:27;;;;;;;1.40;1.40;;;10.20;99.90;;;10.54;91.32;97575.94;5221036;28;20227;-61
2023/01/13 09:50:22;;;;;;;1.33;1.33;;;10.00;99.90;;;10.49;91.87;97561.16;5221072;28;20223;-61
2023/01/13 09:52:55;;;;;;;1.40;1.40;;;10.00;99.90;;;10.37;93.85;97562.28;5228166;28;20565;-61
2023/01/13 09:55:35;;;;;;;1.50;1.40;;;9.80;99.90;;;10.37;91.82;97557.16;5226050;28;20193;-61
2023/01/13 09:58:13;;;;;;;1.40;1.40;;;9.70;99.90;;;10.41;89.33;97557.31;5223014;28;20204;-61
2023/01/13 10:00:58;;;;;;;1.42;1.42;;;9.70;99.90;;;10.21;90.34;97559.66;5216016;28;20255;-60
2023/01/13 10:03:33;;;;;;;1.48;1.35;;;9.60;99.90;;;10.18;90.12;97559.50;5218879;28;20209;-60
2023/01/13 10:06:15;;;;;;;1.77;1.67;;;9.50;99.90;;;10.12;91.05;97562.59;5218838;28;20197;-61
2023/01/13 10:08:49;;;;;;;1.67;1.58;;;9.40;99.90;;;10.10;90.27;97553.09;5224776;28;20196;-60
2023/01/13 10:14:19;;;;;;;1.70;1.60;;;9.40;99.90;;;10.08;92.11;97562.38;5215990;28;20220;-61
2023/01/13 10:17:05;;;;;;;1.50;1.40;;;9.40;99.90;;;10.25;89.60;97570.94;5219205;28;20298;-61
2023/01/13 10:19:43;;;;;;;1.35;1.30;;;9.40;99.90;;;10.17;90.22;97572.19;5219479;28;20198;-60
2023/01/13 10:22:40;;;;;;;1.80;1.70;;;9.40;99.90;;;10.20;89.31;97578.34;5227278;28;21316;-61
2023/01/13 10:25:24;;;;;;;2.22;1.48;;;9.40;99.90;;;10.19;89.94;97570.59;5219239;28;20220;-61
2023/01/13 10:28:09;;;;;;;1.52;1.42;;;9.40;99.90;;;10.12;90.30;97571.94;5222156;28;20582;-61
2023/01/13 10:30:45;;;;;;;2.05;1.60;;;9.30;99.90;;;10.08;92.37;97587.91;5220322;28;20213;-61
2023/01/13 10:33:23;;;;;;;1.70;1.33;;;9.30;99.90;;;10.05;91.97;97587.75;5222501;28;20677;-61
2023/01/13 10:36:02;;;;;;;1.80;1.70;;;9.20;99.90;;;9.80;93.18;97580.41;5227650;28;20208;-60
2023/01/13 10:38:40;;;;;;;1.60;1.50;;;9.10;99.90;;;9.77;92.46;97600.66;5220858;28;20291;-60
2023/01/13 10:41:25;;;;;;;1.63;1.50;;;9.10;99.90;;;9.70;95.87;97589.25;5221562;28;20306;-61
2023/01/13 10:44:03;;;;;;;2.47;2.33;;;9.00;99.90;;;9.58;96.64;97593.63;5221789;28;20247;-59
2023/01/13 10:46:52;;;;;;;1.92;1.83;;;9.00;99.90;;;9.41;99.54;97585.00;5222544;28;20716;-60
2023/01/13 10:49:32;;;;;;;1.63;1.45;;;8.80;99.90;;;9.31;100.00;97604.03;5223112;28;20310;-61
2023/01/13 10:52:27;;;;;;;1.50;1.50;;;8.70;99.90;;;9.23;100.00;97600.16;5223453;28;20296;-60
2023/01/13 10:55:02;;;;;;;2.42;1.60;;;8.60;99.90;;;9.13;100.00;97600.38;5217068;28;20201;-61
2023/01/13 10:57:36;;;;;;;2.88;2.00;;;8.50;99.90;;;9.16;100.00;97592.94;5218119;28;20291;-61
2023/01/13 11:00:28;;;;;;;1.42;1.33;;;8.40;99.90;;;9.11;100.00;97595.22;5219186;28;20267;-61
2023/01/13 11:03:16;;;;;;;2.10;2.00;;;8.50;99.90;;;9.05;100.00;97597.41;5220624;28;20324;-60
2023/01/13 11:05:52;;;;;;;4.55;1.85;;;8.50;99.90;;;8.99;100.00;97595.38;5225506;28;20200;-60
2023/01/13 11:08:29;;;;;;;2.00;1.50;;;8.50;99.90;;;9.03;100.00;97591.34;5223344;28;20208;-60
2023/01/13 11:11:03;;;;;;;2.33;1.42;;;8.50;99.90;;;8.90;100.00;97599.94;5221660;28;20224;-60
2023/01/13 11:14:31;;;;;;;2.05;1.70;;;8.40;99.90;;;8.90;100.00;97594.84;5215131;28;20217;-60
2023/01/13 11:16:35;;;;;;;2.50;1.55;;;8.30;99.90;;;8.96;100.00;97599.44;5223431;28;20695;-60
2023/01/13 11:19:16;;;;;;;2.58;2.08;;;8.40;99.90;;;9.01;100.00;97606.56;5224481;28;20645;-60
2023/01/13 11:21:56;;;;;;;2.30;1.90;;;8.40;99.90;;;9.07;100.00;97594.94;5222227;28;20235;-61
2023/01/13 11:24:35;;;;;;;1.90;1.80;;;8.50;99.90;;;9.07;100.00;97597.50;5216751;28;20197;-60
2023/01/13 11:27:16;;;;;;;2.72;1.92;;;8.50;99.90;;;9.03;100.00;97607.50;5220239;28;20284;-60
2023/01/13 11:30:08;;;;;;;2.03;1.75;;;8.50;99.90;;;9.01;100.00;97626.97;5224591;28;20224;-60
2023/01/13 11:33:01;;;;;;;2.75;1.88;;;8.50;99.90;;;8.95;100.00;97618.91;5224357;28;20227;-60
2023/01/13 11:35:40;;;;;;;2.17;1.90;;;8.40;99.90;;;8.93;100.00;97610.31;5214906;28;20288;-60
2023/01/13 11:38:27;;;;;;;4.05;2.00;;;8.40;99.90;;;8.94;100.00;97621.41;5223758;28;20645;-60
2023/01/13 11:41:08;;;;;;;1.83;1.73;;;8.40;99.90;;;8.98;100.00;97620.78;5226444;28;20205;-60
2023/01/13 11:43:51;;;;;;;1.67;1.58;;;8.30;99.90;;;8.81;100.00;97622.31;5219040;28;20270;-60
2023/01/13 11:46:27;;;;;;;2.83;1.90;;;8.20;99.90;;;8.96;100.00;97628.34;5223511;28;20209;-60